Time;durP1;ratioP1;P1;durP2;ratioP2;P2;SDS_P1;SDS_P2;PMS_P1;PMS_P2;Temp;Humidity;BMP_temperature;BMP_pressure;BME280_temperature;BME280_humidity;BME280_pressure;Samples;Min_cycle;Max_cycle;Signal;HPM_P1;HPM_P2
2022/02/05 00:00:41;;;;;;;19.55;10.65;;;;;;;;;;5093086;28;20078;-84
2022/02/05 00:03:37;;;;;;;21.23;11.30;;;;;;;;;;5096607;28;20085;-84
2022/02/05 00:06:05;;;;;;;22.13;11.13;;;;;;;;;;5096401;28;20048;-83
2022/02/05 00:08:55;;;;;;;22.05;12.10;;;;;;;;;;5096935;28;20098;-83
2022/02/05 00:11:51;;;;;;;37.20;16.45;;;;;;;;;;5096560;28;20024;-83
2022/02/05 00:14:40;;;;;;;20.75;10.35;;;;;;;;;;5096998;28;20057;-83
2022/02/05 00:38:58;;;;;;;43.42;25.23;;;;;;;;;;5088507;28;20487;-83
2022/02/05 00:43:54;;;;;;;39.45;20.67;;;;;;;;;;5097124;28;20036;-83
2022/02/05 00:46:26;;;;;;;61.67;31.70;;;;;;;;;;5096861;28;20021;-84
2022/02/05 00:48:53;;;;;;;90.03;44.63;;;;;;;;;;5096167;28;20031;-83
2022/02/05 00:59:10;;;;;;;49.33;22.30;;;;;;;;;;5097556;28;20098;-82
2022/02/05 01:01:37;;;;;;;48.72;21.52;;;;;;;;;;5095350;28;20563;-83
2022/02/05 01:04:04;;;;;;;50.10;23.92;;;;;;;;;;5095666;28;20111;-83
2022/02/05 01:06:30;;;;;;;30.17;16.45;;;;;;;;;;5096946;28;20024;-82
2022/02/05 01:08:56;;;;;;;24.15;13.00;;;;;;;;;;5095332;28;20137;-81
2022/02/05 01:11:23;;;;;;;20.20;11.65;;;;;;;;;;5096650;28;20024;-82
2022/02/05 01:13:51;;;;;;;21.52;11.55;;;;;;;;;;5095996;28;20069;-83
2022/02/05 01:16:26;;;;;;;22.30;10.75;;;;;;;;;;5094818;28;20077;-83
2022/02/05 01:18:53;;;;;;;21.80;10.95;;;;;;;;;;5095427;28;20068;-83
2022/02/05 01:24:22;;;;;;;47.75;23.83;;;;;;;;;;5073839;28;20017;-84
2022/02/05 01:26:57;;;;;;;32.58;16.98;;;;;;;;;;5092037;28;20543;-84
2022/02/05 01:29:45;;;;;;;22.45;11.98;;;;;;;;;;5096241;28;20016;-84
2022/02/05 01:32:17;;;;;;;32.28;17.20;;;;;;;;;;5095100;28;20032;-83
2022/02/05 01:34:58;;;;;;;32.05;15.65;;;;;;;;;;5094893;28;20028;-83
2022/02/05 01:56:40;;;;;;;46.35;19.38;;;;;;;;;;5096192;28;20544;-83
2022/02/05 02:10:13;;;;;;;33.10;15.80;;;;;;;;;;5085259;28;20107;-84
2022/02/05 02:12:51;;;;;;;33.65;15.75;;;;;;;;;;5094662;28;20027;-82
2022/02/05 02:15:25;;;;;;;21.25;10.85;;;;;;;;;;5095504;28;20134;-84
2022/02/05 02:18:17;;;;;;;21.65;10.23;;;;;;;;;;5095450;28;20468;-83
2022/02/05 02:24:04;;;;;;;18.98;9.38;;;;;;;;;;5095436;28;20568;-83
2022/02/05 02:26:35;;;;;;;16.60;9.25;;;;;;;;;;5093894;28;20020;-85
2022/02/05 02:29:07;;;;;;;16.20;8.25;;;;;;;;;;5111160;28;20369;-84
2022/02/05 02:31:38;;;;;;;17.48;8.40;;;;;;;;;;5111144;28;20433;-84
2022/02/05 02:34:08;;;;;;;15.40;8.45;;;;;;;;;;5094647;28;20020;-83
2022/02/05 02:36:48;;;;;;;18.73;8.27;;;;;;;;;;5111037;28;20020;-83
2022/02/05 02:39:23;;;;;;;11.35;6.75;;;;;;;;;;5094978;28;20027;-84
2022/02/05 02:41:58;;;;;;;11.95;6.30;;;;;;;;;;5094330;28;20050;-84
2022/02/05 02:44:25;;;;;;;12.52;6.25;;;;;;;;;;5094994;28;20020;-84
2022/02/05 02:46:51;;;;;;;14.13;6.68;;;;;;;;;;5110207;28;20059;-84
2022/02/05 02:49:26;;;;;;;14.60;7.93;;;;;;;;;;5110597;28;20034;-83
2022/02/05 02:57:29;;;;;;;22.90;9.35;;;;;;;;;;5093880;28;20365;-84
2022/02/05 03:00:06;;;;;;;17.77;8.65;;;;;;;;;;5110545;28;20020;-84
2022/02/05 03:02:32;;;;;;;20.85;9.07;;;;;;;;;;5110223;28;20032;-84
2022/02/05 03:04:59;;;;;;;26.90;14.90;;;;;;;;;;5094737;28;20379;-84
2022/02/05 03:07:26;;;;;;;37.20;17.83;;;;;;;;;;5094712;28;20019;-84
2022/02/05 03:09:55;;;;;;;28.27;16.02;;;;;;;;;;5093066;28;20119;-84
2022/02/05 03:12:21;;;;;;;26.67;13.30;;;;;;;;;;5093166;28;20052;-84
2022/02/05 03:14:48;;;;;;;20.95;12.95;;;;;;;;;;5092964;28;20387;-85
2022/02/05 03:17:16;;;;;;;20.35;12.05;;;;;;;;;;5094036;28;20024;-84
2022/02/05 03:19:44;;;;;;;17.42;8.80;;;;;;;;;;5093037;28;20527;-83
2022/02/05 03:22:10;;;;;;;15.57;7.47;;;;;;;;;;5093817;28;20040;-84
2022/02/05 03:24:36;;;;;;;16.95;7.07;;;;;;;;;;5110028;28;20016;-83
2022/02/05 03:27:03;;;;;;;12.00;6.22;;;;;;;;;;5110118;28;20471;-83
2022/02/05 03:29:29;;;;;;;12.57;7.03;;;;;;;;;;5093957;28;20020;-85
2022/02/05 03:31:55;;;;;;;18.92;8.35;;;;;;;;;;5094424;28;20085;-84
2022/02/05 03:34:22;;;;;;;18.05;9.27;;;;;;;;;;5109941;28;20047;-85
2022/02/05 03:36:48;;;;;;;18.40;9.40;;;;;;;;;;5093509;28;20020;-84
2022/02/05 03:39:14;;;;;;;15.68;8.32;;;;;;;;;;5094127;28;20099;-84
2022/02/05 03:41:40;;;;;;;14.95;7.22;;;;;;;;;;5093979;28;20056;-84
2022/02/05 03:44:06;;;;;;;12.27;6.95;;;;;;;;;;5093736;28;20028;-84
2022/02/05 03:46:33;;;;;;;12.90;6.45;;;;;;;;;;5109883;28;20028;-84
2022/02/05 03:48:59;;;;;;;14.18;7.80;;;;;;;;;;5109762;28;20050;-84
2022/02/05 03:51:25;;;;;;;14.63;7.32;;;;;;;;;;5093530;28;20468;-84
2022/02/05 03:53:52;;;;;;;13.20;6.80;;;;;;;;;;5092620;28;20387;-84
2022/02/05 03:56:18;;;;;;;13.45;6.78;;;;;;;;;;5093959;28;20028;-84
2022/02/05 03:58:44;;;;;;;14.18;6.80;;;;;;;;;;5093729;28;20028;-85
2022/02/05 04:01:11;;;;;;;11.55;6.25;;;;;;;;;;5109727;28;20040;-85
2022/02/05 04:03:37;;;;;;;17.42;8.27;;;;;;;;;;5094387;28;20024;-85
2022/02/05 04:06:03;;;;;;;19.63;9.57;;;;;;;;;;5093780;28;20024;-85
2022/02/05 04:08:30;;;;;;;18.45;9.40;;;;;;;;;;5094548;28;20020;-85
2022/02/05 04:11:06;;;;;;;14.48;7.75;;;;;;;;;;5110090;28;20024;-84
2022/02/05 04:16:22;;;;;;;42.90;18.02;;;;;;;;;;5094420;28;20097;-84
2022/02/05 04:18:50;;;;;;;31.73;15.15;;;;;;;;;;5093556;28;20058;-85
2022/02/05 04:21:16;;;;;;;22.90;12.93;;;;;;;;;;5092658;28;20027;-84
2022/02/05 04:23:43;;;;;;;29.83;17.48;;;;;;;;;;5092575;28;20396;-84
2022/02/05 04:26:09;;;;;;;32.95;18.45;;;;;;;;;;5093466;28;20020;-85
2022/02/05 04:28:36;;;;;;;34.47;17.48;;;;;;;;;;5093931;28;20400;-85
2022/02/05 04:31:02;;;;;;;27.88;16.70;;;;;;;;;;5093818;28;20024;-85
2022/02/05 04:33:28;;;;;;;39.42;19.25;;;;;;;;;;5092499;28;20046;-85
2022/02/05 04:35:54;;;;;;;31.30;17.02;;;;;;;;;;5093997;28;20024;-85
2022/02/05 04:38:22;;;;;;;28.98;16.33;;;;;;;;;;5092741;28;20025;-85
2022/02/05 04:56:18;;;;;;;34.55;19.25;;;;;;;;;;5096969;28;20421;-84
2022/02/05 05:07:47;;;;;;;41.70;22.42;;;;;;;;;;5097067;28;20461;-84
2022/02/05 05:12:25;;;;;;;39.25;20.50;;;;;;;;;;5096798;28;20040;-84
2022/02/05 05:20:21;;;;;;;67.30;29.40;;;;;;;;;;5097453;28;20030;-84
2022/02/05 05:22:47;;;;;;;82.43;34.25;;;;;;;;;;5096680;28;20028;-84
2022/02/05 05:25:13;;;;;;;93.07;39.17;;;;;;;;;;5095635;28;20044;-84
2022/02/05 05:27:39;;;;;;;54.15;26.42;;;;;;;;;;5096527;28;20028;-84
2022/02/05 05:30:06;;;;;;;45.65;20.17;;;;;;;;;;5094804;28;20016;-84
2022/02/05 05:32:33;;;;;;;53.75;22.20;;;;;;;;;;5095011;28;20047;-84
2022/02/05 05:34:59;;;;;;;45.78;21.17;;;;;;;;;;5096201;28;20024;-83
2022/02/05 05:37:25;;;;;;;33.28;15.13;;;;;;;;;;5095780;28;20107;-84
2022/02/05 05:39:51;;;;;;;24.50;13.02;;;;;;;;;;5096093;28;20020;-83
2022/02/05 05:42:29;;;;;;;19.58;10.93;;;;;;;;;;5094465;28;20609;-84
2022/02/05 05:52:49;;;;;;;54.90;25.15;;;;;;;;;;5087150;28;20388;-83
2022/02/05 05:55:16;;;;;;;34.85;17.33;;;;;;;;;;5095580;28;20097;-83
2022/02/05 05:57:42;;;;;;;33.40;15.90;;;;;;;;;;5095451;28;20024;-83
2022/02/05 06:00:09;;;;;;;36.05;19.25;;;;;;;;;;5095995;28;20027;-84
2022/02/05 06:02:35;;;;;;;29.45;15.43;;;;;;;;;;5094851;28;20488;-84
2022/02/05 06:05:01;;;;;;;28.77;14.75;;;;;;;;;;5094194;28;20020;-84
2022/02/05 06:07:27;;;;;;;32.50;17.05;;;;;;;;;;5095474;28;20081;-84
2022/02/05 06:09:54;;;;;;;36.00;16.83;;;;;;;;;;5095279;28;20016;-83
2022/02/05 06:12:20;;;;;;;37.03;20.48;;;;;;;;;;5096138;28;20035;-83
2022/02/05 06:14:47;;;;;;;39.92;19.88;;;;;;;;;;5094894;28;20077;-83
2022/02/05 06:17:20;;;;;;;59.90;30.45;;;;;;;;;;5095204;28;20376;-83
2022/02/05 06:19:47;;;;;;;63.97;34.30;;;;;;;;;;5094719;28;20058;-84
2022/02/05 06:22:13;;;;;;;52.85;28.65;;;;;;;;;;5095748;28;20118;-84
2022/02/05 06:24:39;;;;;;;79.88;38.65;;;;;;;;;;5095637;28;20376;-84
2022/02/05 06:27:07;;;;;;;59.72;31.67;;;;;;;;;;5095020;28;20024;-84
2022/02/05 06:29:34;;;;;;;47.00;26.35;;;;;;;;;;5095178;28;20023;-84
2022/02/05 06:32:00;;;;;;;43.92;20.85;;;;;;;;;;5093429;28;20437;-83
2022/02/05 06:34:27;;;;;;;38.47;20.75;;;;;;;;;;5095016;28;20028;-83
2022/02/05 06:36:53;;;;;;;46.17;23.00;;;;;;;;;;5093688;28;20031;-84
2022/02/05 06:39:22;;;;;;;54.35;27.05;;;;;;;;;;5094560;28;20020;-84
2022/02/05 06:41:48;;;;;;;49.38;26.10;;;;;;;;;;5093533;28;20519;-84
2022/02/05 06:44:15;;;;;;;61.00;32.72;;;;;;;;;;5094850;28;20032;-85
2022/02/05 06:46:41;;;;;;;62.78;35.22;;;;;;;;;;5094461;28;20020;-83
2022/02/05 06:49:08;;;;;;;55.50;29.17;;;;;;;;;;5094498;28;20020;-83
2022/02/05 06:51:34;;;;;;;49.08;25.83;;;;;;;;;;5094717;28;20024;-82
2022/02/05 06:54:01;;;;;;;48.33;26.67;;;;;;;;;;5092959;28;20043;-83
2022/02/05 06:56:27;;;;;;;57.25;29.15;;;;;;;;;;5094341;28;20028;-83
2022/02/05 06:58:53;;;;;;;64.22;31.00;;;;;;;;;;5094508;28;20031;-84
2022/02/05 07:01:20;;;;;;;60.17;31.23;;;;;;;;;;5094288;28;20531;-85
2022/02/05 07:03:46;;;;;;;53.55;31.75;;;;;;;;;;5093615;28;20503;-85
2022/02/05 07:06:12;;;;;;;49.47;28.58;;;;;;;;;;5094560;28;20024;-84
2022/02/05 07:08:41;;;;;;;53.88;32.45;;;;;;;;;;5093981;28;20096;-83
2022/02/05 07:11:07;;;;;;;62.63;33.72;;;;;;;;;;5092578;28;20365;-84
2022/02/05 07:13:34;;;;;;;48.58;25.33;;;;;;;;;;5094434;28;20062;-83
2022/02/05 07:16:11;;;;;;;45.33;22.05;;;;;;;;;;5093874;28;20091;-83
2022/02/05 07:21:17;;;;;;;48.90;23.40;;;;;;;;;;5094592;28;20130;-84
2022/02/05 07:24:12;;;;;;;43.10;21.92;;;;;;;;;;5094314;28;20013;-84
2022/02/05 07:29:23;;;;;;;44.20;21.50;;;;;;;;;;5094468;28;20039;-85
2022/02/05 07:31:53;;;;;;;59.53;29.77;;;;;;;;;;5094159;28;20020;-84
2022/02/05 07:34:21;;;;;;;65.03;30.67;;;;;;;;;;5093136;28;20038;-85
2022/02/05 07:36:48;;;;;;;74.22;34.38;;;;;;;;;;5093742;28;20024;-84
2022/02/05 07:39:15;;;;;;;64.55;31.77;;;;;;;;;;5092862;28;20379;-83
2022/02/05 07:41:41;;;;;;;53.75;28.85;;;;;;;;;;5092401;28;20051;-82
2022/02/05 07:44:13;;;;;;;50.28;23.85;;;;;;;;;;5093449;28;20020;-83
2022/02/05 07:46:41;;;;;;;43.47;24.05;;;;;;;;;;5092598;28;20043;-81
2022/02/05 07:49:07;;;;;;;46.05;26.52;;;;;;;;;;5091918;28;20016;-81
2022/02/05 07:51:34;;;;;;;53.60;29.95;;;;;;;;;;5092401;28;20097;-81
2022/02/05 07:54:00;;;;;;;40.85;22.75;;;;;;;;;;5093639;28;20043;-82
2022/02/05 07:56:27;;;;;;;43.47;25.13;;;;;;;;;;5093244;28;20498;-82
2022/02/05 07:58:54;;;;;;;44.95;25.52;;;;;;;;;;5093753;28;20023;-84
2022/02/05 08:01:20;;;;;;;42.92;24.85;;;;;;;;;;5094101;28;20114;-84
2022/02/05 08:03:46;;;;;;;32.63;18.75;;;;;;;;;;5093630;28;20098;-84
2022/02/05 08:06:16;;;;;;;28.63;18.77;;;;;;;;;;5092733;28;20383;-84
2022/02/05 08:08:43;;;;;;;32.15;19.95;;;;;;;;;;5093908;28;20020;-82
2022/02/05 08:11:13;;;;;;;27.88;16.38;;;;;;;;;;5093224;28;20016;-83
2022/02/05 08:13:42;;;;;;;27.45;17.27;;;;;;;;;;5093462;28;20028;-82
2022/02/05 08:16:25;;;;;;;32.05;18.80;;;;;;;;;;5092298;28;20024;-84
2022/02/05 08:18:51;;;;;;;41.45;26.90;;;;;;;;;;5092360;28;20082;-84
2022/02/05 08:21:17;;;;;;;60.45;33.35;;;;;;;;;;5092453;28;20070;-83
2022/02/05 08:23:43;;;;;;;46.22;27.27;;;;;;;;;;5095637;28;20052;-84
2022/02/05 08:26:10;;;;;;;40.85;23.67;;;;;;;;;;5098093;28;20471;-84
2022/02/05 08:28:36;;;;;;;37.97;21.25;;;;;;;;;;5098035;28;20016;-84
2022/02/05 08:31:03;;;;;;;50.72;28.65;;;;;;;;;;5097671;28;20600;-83
2022/02/05 08:33:29;;;;;;;44.70;23.10;;;;;;;;;;5096940;28;20016;-84
2022/02/05 08:35:56;;;;;;;26.85;16.02;;;;;;;;;;5095981;28;20046;-84
2022/02/05 08:38:22;;;;;;;27.23;15.68;;;;;;;;;;5096933;28;20059;-84
2022/02/05 08:40:48;;;;;;;28.50;16.25;;;;;;;;;;5096945;28;20047;-83
2022/02/05 08:43:14;;;;;;;25.77;14.82;;;;;;;;;;5095793;28;20024;-84
2022/02/05 08:45:40;;;;;;;27.30;16.55;;;;;;;;;;5096701;28;20024;-82
2022/02/05 08:48:07;;;;;;;23.45;14.48;;;;;;;;;;5095694;28;20047;-82
2022/02/05 08:50:34;;;;;;;33.20;17.85;;;;;;;;;;5096948;28;20040;-82
2022/02/05 08:53:00;;;;;;;40.20;22.50;;;;;;;;;;5095215;28;20028;-83
2022/02/05 08:55:31;;;;;;;39.17;21.67;;;;;;;;;;5095510;28;20442;-83
2022/02/05 08:57:59;;;;;;;35.08;20.75;;;;;;;;;;5095718;28;20065;-85
2022/02/05 09:00:26;;;;;;;40.95;21.92;;;;;;;;;;5096541;28;20024;-85
2022/02/05 09:02:59;;;;;;;40.33;24.33;;;;;;;;;;5096020;28;20082;-86
2022/02/05 09:08:20;;;;;;;48.58;29.38;;;;;;;;;;5096582;28;20039;-83
2022/02/05 09:11:06;;;;;;;44.30;24.00;;;;;;;;;;5095279;28;20028;-85
2022/02/05 09:16:12;;;;;;;48.97;29.65;;;;;;;;;;5096387;28;20074;-84
2022/02/05 09:18:39;;;;;;;44.50;24.83;;;;;;;;;;5095156;28;20388;-83
2022/02/05 09:21:05;;;;;;;82.63;41.30;;;;;;;;;;5094699;28;20035;-84
2022/02/05 09:23:33;;;;;;;58.92;34.20;;;;;;;;;;5094954;28;20024;-84
2022/02/05 09:26:00;;;;;;;91.70;49.38;;;;;;;;;;5095211;28;20502;-84
2022/02/05 09:28:28;;;;;;;70.70;34.95;;;;;;;;;;5095948;28;20028;-85
2022/02/05 09:31:24;;;;;;;59.85;36.22;;;;;;;;;;5096276;28;20048;-84
2022/02/05 09:33:44;;;;;;;65.80;39.03;;;;;;;;;;5095979;28;20024;-84
2022/02/05 09:36:10;;;;;;;52.42;32.15;;;;;;;;;;5095724;28;20028;-83
2022/02/05 09:38:36;;;;;;;50.08;32.53;;;;;;;;;;5096208;28;20388;-84
2022/02/05 09:41:03;;;;;;;54.85;31.83;;;;;;;;;;5095938;28;20109;-84
2022/02/05 09:43:30;;;;;;;50.33;27.83;;;;;;;;;;5095740;28;20016;-84
2022/02/05 09:45:57;;;;;;;50.83;32.80;;;;;;;;;;5095854;28;20069;-84
2022/02/05 09:48:24;;;;;;;71.82;43.67;;;;;;;;;;5094654;28;20049;-83
2022/02/05 09:50:50;;;;;;;41.78;24.73;;;;;;;;;;5095358;28;20031;-85
2022/02/05 09:53:20;;;;;;;38.58;23.02;;;;;;;;;;5095885;28;20032;-84
2022/02/05 09:55:47;;;;;;;42.70;24.10;;;;;;;;;;5093997;28;20028;-85
2022/02/05 09:58:13;;;;;;;33.08;19.42;;;;;;;;;;5095808;28;20028;-85
2022/02/05 10:00:40;;;;;;;28.98;18.83;;;;;;;;;;5094758;28;20020;-85
2022/02/05 10:03:25;;;;;;;33.20;20.30;;;;;;;;;;5094600;28;20028;-86
2022/02/05 10:06:08;;;;;;;37.47;22.38;;;;;;;;;;5096003;28;20024;-86
2022/02/05 10:08:35;;;;;;;40.75;24.52;;;;;;;;;;5095805;28;20020;-85
2022/02/05 10:11:02;;;;;;;41.03;25.38;;;;;;;;;;5095099;28;20107;-85
2022/02/05 10:13:29;;;;;;;31.33;21.13;;;;;;;;;;5095627;28;20091;-84
2022/02/05 10:15:57;;;;;;;42.22;24.27;;;;;;;;;;5094304;28;20074;-85
2022/02/05 10:18:31;;;;;;;40.35;20.48;;;;;;;;;;5094990;28;20017;-84
2022/02/05 10:20:58;;;;;;;34.35;18.90;;;;;;;;;;5094092;28;20028;-85
2022/02/05 10:23:24;;;;;;;34.33;20.35;;;;;;;;;;5094309;28;20115;-85
2022/02/05 10:25:51;;;;;;;32.67;18.08;;;;;;;;;;5095272;28;20073;-86
2022/02/05 10:28:18;;;;;;;30.70;18.83;;;;;;;;;;5095877;28;20039;-84
2022/02/05 10:30:49;;;;;;;29.60;19.10;;;;;;;;;;5095449;28;20017;-86
2022/02/05 10:33:35;;;;;;;26.25;15.93;;;;;;;;;;5093826;28;20028;-85
2022/02/05 10:36:26;;;;;;;35.55;20.00;;;;;;;;;;5095761;28;20360;-83
2022/02/05 10:39:11;;;;;;;32.53;18.92;;;;;;;;;;5093462;28;20028;-84
2022/02/05 10:44:26;;;;;;;25.20;14.70;;;;;;;;;;5095182;28;20043;-85
2022/02/05 10:46:56;;;;;;;36.17;20.60;;;;;;;;;;5094009;28;20495;-85
2022/02/05 10:49:37;;;;;;;37.50;17.58;;;;;;;;;;5093802;28;20024;-86
2022/02/05 10:52:03;;;;;;;25.67;12.95;;;;;;;;;;5093798;28;20028;-86
2022/02/05 10:54:49;;;;;;;25.55;13.30;;;;;;;;;;5093758;28;20027;-85
2022/02/05 10:57:24;;;;;;;22.13;12.90;;;;;;;;;;5095028;28;20020;-86
2022/02/05 11:05:43;;;;;;;24.45;12.07;;;;;;;;;;5095346;28;20085;-86
2022/02/05 11:08:10;;;;;;;17.23;11.18;;;;;;;;;;5093700;28;20088;-85
2022/02/05 11:10:56;;;;;;;20.30;12.18;;;;;;;;;;5095056;28;20020;-86
2022/02/05 11:19:00;;;;;;;39.50;18.77;;;;;;;;;;5101904;28;20085;-86
2022/02/05 11:21:27;;;;;;;23.30;12.90;;;;;;;;;;5103543;28;20055;-86
2022/02/05 11:24:06;;;;;;;19.13;11.02;;;;;;;;;;5104903;28;20016;-86
2022/02/05 11:26:33;;;;;;;23.10;14.38;;;;;;;;;;5100230;28;20020;-86
2022/02/05 11:29:01;;;;;;;26.48;15.40;;;;;;;;;;5098149;28;20016;-85
2022/02/05 11:31:41;;;;;;;28.70;14.07;;;;;;;;;;5096887;28;20128;-87
2022/02/05 11:34:14;;;;;;;18.95;12.10;;;;;;;;;;5094929;28;20028;-86
2022/02/05 11:36:43;;;;;;;21.67;10.95;;;;;;;;;;5095031;28;20095;-87
2022/02/05 11:39:15;;;;;;;18.42;11.20;;;;;;;;;;5095614;28;20383;-85
2022/02/05 11:41:44;;;;;;;17.80;11.18;;;;;;;;;;5093319;28;20056;-86
2022/02/05 11:44:24;;;;;;;16.02;9.57;;;;;;;;;;5094533;28;20434;-86
2022/02/05 11:47:09;;;;;;;16.35;9.57;;;;;;;;;;5094579;28;20491;-86
2022/02/05 11:49:55;;;;;;;13.48;8.93;;;;;;;;;;5094016;28;20142;-86
2022/02/05 11:52:37;;;;;;;15.75;9.77;;;;;;;;;;5094658;28;20027;-86
2022/02/05 11:55:22;;;;;;;13.23;8.60;;;;;;;;;;5094280;28;20111;-86
2022/02/05 11:57:49;;;;;;;14.02;8.82;;;;;;;;;;5096236;28;20095;-86
2022/02/05 12:00:20;;;;;;;13.95;8.40;;;;;;;;;;5099017;28;20467;-86
2022/02/05 12:02:57;;;;;;;13.38;8.65;;;;;;;;;;5098577;28;20063;-86
2022/02/05 12:05:26;;;;;;;13.95;8.73;;;;;;;;;;5098763;28;20376;-86
2022/02/05 12:08:05;;;;;;;14.93;9.48;;;;;;;;;;5098451;28;20024;-86
2022/02/05 12:10:40;;;;;;;17.38;9.82;;;;;;;;;;5113811;28;20073;-86
2022/02/05 12:13:15;;;;;;;17.75;10.73;;;;;;;;;;5114102;28;20024;-87
2022/02/05 12:15:46;;;;;;;15.88;9.05;;;;;;;;;;5097287;28;20050;-87
2022/02/05 12:18:25;;;;;;;23.02;11.27;;;;;;;;;;5113768;28;20027;-85
2022/02/05 12:20:52;;;;;;;21.23;12.82;;;;;;;;;;5096905;28;20031;-86
2022/02/05 12:25:59;;;;;;;22.67;11.82;;;;;;;;;;5098028;28;20456;-86
2022/02/05 12:28:44;;;;;;;17.85;10.32;;;;;;;;;;5098457;28;20032;-86
2022/02/05 12:31:25;;;;;;;19.98;12.93;;;;;;;;;;5097808;28;20027;-85
2022/02/05 12:33:53;;;;;;;17.05;11.20;;;;;;;;;;5098007;28;20536;-85
2022/02/05 12:36:48;;;;;;;22.42;13.43;;;;;;;;;;5098214;28;20032;-85
2022/02/05 12:39:16;;;;;;;25.60;15.02;;;;;;;;;;5103646;28;20035;-88
2022/02/05 12:41:52;;;;;;;25.10;15.95;;;;;;;;;;5104992;28;20051;-85
2022/02/05 12:44:22;;;;;;;26.45;14.85;;;;;;;;;;5105197;28;20517;-85
2022/02/05 12:46:56;;;;;;;26.17;15.85;;;;;;;;;;5098893;28;20116;-85
2022/02/05 12:49:27;;;;;;;26.63;14.52;;;;;;;;;;5098951;28;20078;-85
2022/02/05 12:51:53;;;;;;;23.60;15.20;;;;;;;;;;5097273;28;20020;-85
2022/02/05 12:54:23;;;;;;;21.50;13.15;;;;;;;;;;5096037;28;20380;-85
2022/02/05 12:56:50;;;;;;;23.90;13.32;;;;;;;;;;5096076;28;20469;-86
2022/02/05 12:59:24;;;;;;;25.67;15.85;;;;;;;;;;5095862;28;20103;-86
2022/02/05 13:12:15;;;;;;;27.88;19.48;;;;;;;;;;5112176;27;20322;-85
2022/02/05 13:16:11;;;;;;;25.83;16.45;;;;;;;;;;5091653;27;20769;-87
2022/02/05 13:18:49;;;;;;;25.35;16.95;;;;;;;;;;5091685;28;20027;-86
2022/02/05 13:26:58;;;;;;;30.38;19.55;;;;;;;;;;5092017;28;20086;-86
2022/02/05 13:35:04;;;;;;;38.15;17.80;;;;;;;;;;5091075;28;20046;-85
2022/02/05 13:37:44;;;;;;;18.75;12.00;;;;;;;;;;5091295;28;20021;-86
2022/02/05 13:40:11;;;;;;;28.15;16.15;;;;;;;;;;5091433;28;20107;-86
2022/02/05 13:42:42;;;;;;;22.42;14.40;;;;;;;;;;5092360;28;20029;-82
2022/02/05 13:45:18;;;;;;;19.25;12.43;;;;;;;;;;5096257;28;20024;-85
2022/02/05 13:47:44;;;;;;;21.10;13.65;;;;;;;;;;5089976;28;20443;-85
2022/02/05 13:50:21;;;;;;;27.25;19.30;;;;;;;;;;5090512;28;20100;-84
2022/02/05 13:52:54;;;;;;;25.50;16.60;;;;;;;;;;5089753;28;20027;-85
2022/02/05 13:55:21;;;;;;;32.05;20.90;;;;;;;;;;5089840;28;20044;-85
2022/02/05 13:58:01;;;;;;;31.92;19.08;;;;;;;;;;5090915;28;20041;-85
2022/02/05 14:00:37;;;;;;;22.70;14.75;;;;;;;;;;5091038;28;20031;-86
2022/02/05 14:03:05;;;;;;;22.10;13.88;;;;;;;;;;5090755;28;20040;-86
2022/02/05 14:05:31;;;;;;;21.45;14.00;;;;;;;;;;5090840;28;20561;-86
2022/02/05 14:07:57;;;;;;;21.58;13.30;;;;;;;;;;5089696;28;20035;-85
2022/02/05 14:10:24;;;;;;;29.10;16.85;;;;;;;;;;5089059;28;20024;-87
2022/02/05 14:12:54;;;;;;;27.73;16.70;;;;;;;;;;5089357;28;20616;-85
2022/02/05 14:15:21;;;;;;;26.80;17.13;;;;;;;;;;5090148;28;20488;-85
2022/02/05 14:17:48;;;;;;;26.45;16.95;;;;;;;;;;5090034;28;20024;-86
2022/02/05 14:20:16;;;;;;;26.25;18.13;;;;;;;;;;5090300;28;20052;-86
2022/02/05 14:22:47;;;;;;;29.73;15.48;;;;;;;;;;5090403;28;20016;-85
2022/02/05 14:25:32;;;;;;;21.70;13.88;;;;;;;;;;5090883;28;20073;-86
2022/02/05 14:28:15;;;;;;;30.35;17.90;;;;;;;;;;5076428;28;20048;-87
2022/02/05 14:30:55;;;;;;;33.35;17.42;;;;;;;;;;5077090;28;20031;-86
2022/02/05 14:33:23;;;;;;;30.42;17.30;;;;;;;;;;5076081;28;20688;-85
2022/02/05 14:36:16;;;;;;;30.65;17.33;;;;;;;;;;5076943;28;20039;-85
2022/02/05 14:41:20;;;;;;;39.75;20.42;;;;;;;;;;5076480;28;20035;-86
2022/02/05 14:43:47;;;;;;;48.05;28.52;;;;;;;;;;5075489;28;20472;-86
2022/02/05 14:46:13;;;;;;;51.72;27.00;;;;;;;;;;5076319;28;20036;-85
2022/02/05 14:48:39;;;;;;;41.78;23.15;;;;;;;;;;5076441;28;20021;-84
2022/02/05 14:51:07;;;;;;;33.88;21.50;;;;;;;;;;5075169;28;20444;-85
2022/02/05 14:53:33;;;;;;;33.15;18.65;;;;;;;;;;5075967;28;20103;-84
2022/02/05 14:55:59;;;;;;;28.52;17.35;;;;;;;;;;5076608;28;20039;-85
2022/02/05 14:58:26;;;;;;;42.08;22.20;;;;;;;;;;5076728;28;20020;-86
2022/02/05 15:00:53;;;;;;;20.83;13.88;;;;;;;;;;5078070;28;20024;-87
2022/02/05 15:03:20;;;;;;;34.90;19.52;;;;;;;;;;5077867;28;20012;-86
2022/02/05 15:05:48;;;;;;;27.67;18.80;;;;;;;;;;5076908;28;20134;-86
2022/02/05 15:08:15;;;;;;;32.20;17.63;;;;;;;;;;5075109;28;20024;-86
2022/02/05 15:10:41;;;;;;;34.83;19.20;;;;;;;;;;5076465;28;20082;-85
2022/02/05 15:13:07;;;;;;;34.90;18.23;;;;;;;;;;5074368;28;20337;-86
2022/02/05 15:15:34;;;;;;;52.92;22.70;;;;;;;;;;5078745;28;20052;-85
2022/02/05 15:18:02;;;;;;;37.80;22.23;;;;;;;;;;5081115;28;20020;-85
2022/02/05 15:20:29;;;;;;;31.13;18.23;;;;;;;;;;5079345;28;20020;-86
2022/02/05 15:22:55;;;;;;;32.03;19.58;;;;;;;;;;5075193;28;20024;-86
2022/02/05 15:25:21;;;;;;;33.65;19.73;;;;;;;;;;5075939;28;20024;-86
2022/02/05 15:27:47;;;;;;;40.13;20.17;;;;;;;;;;5075839;28;20063;-86
2022/02/05 15:30:14;;;;;;;44.35;21.63;;;;;;;;;;5076223;28;20138;-86
2022/02/05 15:32:41;;;;;;;45.58;24.00;;;;;;;;;;5074958;28;20111;-87
2022/02/05 15:35:08;;;;;;;45.60;25.25;;;;;;;;;;5075606;28;20032;-86
2022/02/05 15:37:34;;;;;;;49.85;28.05;;;;;;;;;;5073907;28;20025;-87
2022/02/05 15:45:12;;;;;;;49.08;27.00;;;;;;;;;;5075812;28;20614;-86
2022/02/05 15:47:40;;;;;;;59.45;28.08;;;;;;;;;;5073749;28;20052;-85
2022/02/05 15:50:08;;;;;;;40.42;24.40;;;;;;;;;;5074105;28;20017;-86
2022/02/05 15:52:35;;;;;;;37.08;20.77;;;;;;;;;;5074026;28;20485;-86
2022/02/05 15:55:02;;;;;;;43.63;22.80;;;;;;;;;;5075002;28;20536;-86
2022/02/05 15:57:58;;;;;;;43.72;24.58;;;;;;;;;;5075624;28;20017;-86
2022/02/05 16:00:27;;;;;;;41.38;21.35;;;;;;;;;;5074900;28;20033;-85
2022/02/05 16:02:54;;;;;;;33.17;19.27;;;;;;;;;;5074022;28;20028;-86
2022/02/05 16:05:21;;;;;;;25.17;15.02;;;;;;;;;;5074997;28;20472;-86
2022/02/05 16:07:47;;;;;;;49.88;28.23;;;;;;;;;;5074971;28;20024;-86
2022/02/05 16:10:14;;;;;;;54.60;28.80;;;;;;;;;;5074696;28;20120;-86
2022/02/05 16:12:45;;;;;;;45.60;25.83;;;;;;;;;;5073774;28;20021;-85
2022/02/05 16:15:11;;;;;;;44.55;23.70;;;;;;;;;;5073459;28;20154;-86
2022/02/05 16:17:38;;;;;;;45.30;25.98;;;;;;;;;;5074352;28;20095;-86
2022/02/05 16:20:05;;;;;;;41.72;25.17;;;;;;;;;;5074808;28;20035;-86
2022/02/05 16:22:31;;;;;;;57.85;33.35;;;;;;;;;;5074847;28;20059;-86
2022/02/05 16:24:57;;;;;;;58.17;33.90;;;;;;;;;;5074221;28;20389;-86
2022/02/05 16:27:25;;;;;;;62.53;36.30;;;;;;;;;;5074678;28;20017;-85
2022/02/05 16:29:51;;;;;;;60.47;36.55;;;;;;;;;;5074595;28;20618;-84
2022/02/05 16:32:17;;;;;;;64.82;38.55;;;;;;;;;;5074846;28;20487;-84
2022/02/05 16:34:50;;;;;;;65.82;39.75;;;;;;;;;;5074658;28;20048;-85
2022/02/05 16:37:16;;;;;;;74.45;42.72;;;;;;;;;;5074504;28;20048;-86
2022/02/05 16:39:44;;;;;;;73.03;41.33;;;;;;;;;;5073545;28;20039;-86
2022/02/05 16:42:11;;;;;;;68.53;39.53;;;;;;;;;;5074663;28;20021;-85
2022/02/05 16:44:38;;;;;;;61.67;36.13;;;;;;;;;;5073087;28;20024;-85
2022/02/05 16:47:05;;;;;;;56.45;34.13;;;;;;;;;;5074542;28;20040;-86
2022/02/05 16:49:31;;;;;;;56.65;34.53;;;;;;;;;;5073311;28;20025;-86
2022/02/05 16:51:57;;;;;;;52.40;30.90;;;;;;;;;;5073616;28;20025;-85
2022/02/05 16:54:25;;;;;;;75.07;42.13;;;;;;;;;;5074451;28;20024;-85
2022/02/05 16:56:51;;;;;;;77.22;45.92;;;;;;;;;;5074176;28;20469;-85
2022/02/05 16:59:18;;;;;;;90.70;52.45;;;;;;;;;;5072853;28;20020;-84
2022/02/05 17:01:44;;;;;;;148.90;85.40;;;;;;;;;;5073086;28;20134;-85
2022/02/05 17:04:13;;;;;;;152.98;90.55;;;;;;;;;;5073028;28;20043;-86
2022/02/05 17:06:39;;;;;;;185.45;100.85;;;;;;;;;;5073818;28;20013;-86
2022/02/05 17:09:07;;;;;;;146.90;89.50;;;;;;;;;;5073157;28;20039;-85
2022/02/05 17:11:35;;;;;;;134.38;80.80;;;;;;;;;;5074105;28;20017;-86
2022/02/05 17:14:01;;;;;;;138.15;83.28;;;;;;;;;;5073398;28;20162;-84
2022/02/05 17:16:28;;;;;;;147.05;84.72;;;;;;;;;;5073026;28;20031;-87
2022/02/05 17:18:54;;;;;;;122.82;69.55;;;;;;;;;;5074129;28;20016;-86
2022/02/05 17:21:21;;;;;;;132.43;74.80;;;;;;;;;;5072936;28;20059;-86
2022/02/05 17:23:47;;;;;;;119.65;73.97;;;;;;;;;;5072831;28;20452;-86
2022/02/05 17:26:16;;;;;;;143.35;84.70;;;;;;;;;;5073813;28;20073;-85
2022/02/05 17:28:47;;;;;;;135.48;76.75;;;;;;;;;;5074053;28;20526;-86